Latest Weather Observations for Salmon Gums RS

IDW60801

Issued at 6:02 am WST Saturday 30 May 2015 (issued every 30 minutes, with the page automatically refreshed every 10 minutes)

About weather observations | Map of weather stations | Latest weather observations for WA | Other Formats
Station Details ID: 012071 Name: SALMON GUMS RES.STN. Lat: -32.99 Lon: 121.62 Height: 249.0 m
Data from the previous 72 hours. | See also: Recent months at Salmon Gums RS
Date/Time
WST
Temp
°C
App
Temp
°C
Dew
Point
Rel
Hum
%
Delta-T
°C
Wind Press
QNH
hPa
Press
MSL
hPa
Rain
since 9 am
mm
Dir
 
Spd
km/h
Gust
km/h
Spd
kts
Gust
kts
30/06:00am -1.0 -4.3 -1.6 96 0.2 WNW 6 7 3 4 - - 0.0
30/05:30am -1.7 -5.1 -2.3 96 0.1 WNW 6 6 3 3 - - 0.0
30/05:00am -1.3 -4.7 -2.0 95 0.2 NW 6 7 3 4 - - 0.0
30/04:30am -0.9 -4.4 -1.6 95 0.2 NW 7 7 4 4 - - 0.0
30/04:00am -1.1 -4.7 -1.8 95 0.2 NW 7 7 4 4 - - 0.0
30/03:30am -0.5 -4.0 -1.2 95 0.2 NW 7 9 4 5 - - 0.0
30/03:00am -1.1 -4.7 -1.8 95 0.2 NW 7 7 4 4 - - 0.0
30/02:30am -1.0 -3.2 -1.7 95 0.2 CALM 0 0 0 0 - - 0.0
30/02:00am -0.7 -2.9 -1.5 94 0.2 CALM 0 0 0 0 - - 0.0
30/01:30am -0.4 -2.6 -1.2 94 0.3 CALM 0 0 0 0 - - 0.0
30/01:00am 0.2 -1.9 -0.6 94 0.3 CALM 0 0 0 0 - - 0.0
30/12:30am 0.5 -1.6 -0.5 93 0.4 CALM 0 0 0 0 - - 0.0
30/12:00am 0.8 -1.2 -0.3 92 0.4 CALM 0 2 0 1 - - 0.0
 
Date/Time
WST
Temp
°C
App
Temp
°C
Dew
Point
Rel
Hum
%
Delta-T
°C
Wind Press
QNH
hPa
Press
MSL
hPa
Rain
since 9 am
mm
Dir
 
Spd
km/h
Gust
km/h
Spd
kts
Gust
kts
29/11:30pm 1.3 -1.4 0.1 92 0.4 NW 4 6 2 3 - - 0.0
29/11:00pm 1.8 -1.2 0.5 91 0.5 WNW 6 6 3 3 - - 0.0
29/10:30pm 2.6 0.0 1.1 90 0.6 W 4 6 2 3 - - 0.0
29/10:00pm 3.3 1.6 1.7 89 0.6 CALM 0 2 0 1 - - 0.0
29/09:30pm 4.1 2.1 2.1 87 0.8 S 2 4 1 2 - - 0.0
29/09:00pm 5.4 3.5 2.6 82 1.2 SSE 2 4 1 2 - - 0.0
29/08:30pm 7.7 5.6 3.9 77 1.7 S 4 4 2 2 - - 0.0
29/08:00pm 9.4 7.1 4.6 72 2.2 SW 6 7 3 4 - - 0.0
29/07:30pm 9.3 7.4 4.7 73 2.1 SE 4 6 2 3 - - 0.0
29/07:00pm 9.6 7.9 4.2 69 2.4 SE 2 6 1 3 - - 0.0
29/06:30pm 11.9 9.7 5.1 63 3.2 S 6 6 3 3 - - 0.0
29/06:00pm 11.5 9.7 5.6 67 2.8 SSE 4 6 2 3 - - 0.0
29/05:30pm 12.4 11.3 5.3 62 3.3 CALM 0 0 0 0 - - 0.0
29/05:00pm 13.7 12.2 5.1 56 4.1 SSW 2 2 1 1 - - 0.0
29/04:30pm 14.3 11.8 4.9 53 4.4 SSW 7 11 4 6 - - 0.0
29/04:00pm 14.8 12.5 5.6 54 4.4 S 7 9 4 5 - - 0.0
29/03:30pm 14.8 12.5 5.9 55 4.3 SSW 7 11 4 6 - - 0.0
29/03:00pm 14.9 12.0 6.5 57 4.1 S 11 15 6 8 - - 0.0
29/02:30pm 15.8 13.8 6.3 53 4.7 SW 6 7 3 4 - - 0.0
29/02:00pm 15.4 13.9 6.7 56 4.3 SW 4 7 2 4 - - 0.0
29/01:30pm 14.6 13.9 6.9 60 3.8 CALM 0 6 0 3 - - 0.0
29/01:00pm 14.4 12.5 7.5 63 3.4 E 7 11 4 6 - - 0.0
29/12:30pm 14.1 12.4 7.4 64 3.3 SSE 6 7 3 4 - - 0.0
29/12:00pm 14.2 12.2 7.0 62 3.6 SSW 7 11 4 6 - - 0.0
29/11:30am 14.1 12.7 7.4 64 3.3 S 4 6 2 3 - - 0.0
29/11:00am 13.7 12.6 7.0 64 3.3 NNW 2 9 1 5 - - 0.0
29/10:30am 13.5 11.6 7.7 68 2.9 N 7 13 4 7 - - 0.0
29/10:00am 12.3 10.8 8.6 78 1.9 ENE 6 9 3 5 - - 0.0
29/09:30am 11.8 10.8 10.4 91 0.7 N 6 7 3 4 - - 0.0
29/09:00am 10.7 10.8 10.1 96 0.3 CALM 0 0 0 0 - - 0.8
29/08:30am 8.7 8.3 8.1 96 0.3 CALM 0 0 0 0 - - 0.8
29/08:00am 6.6 5.7 6.0 96 0.3 CALM 0 0 0 0 - - 0.8
29/07:30am 4.5 2.4 3.8 95 0.3 NNW 4 6 2 3 - - 0.8
29/07:00am 4.0 2.6 3.3 95 0.3 CALM 0 0 0 0 - - 0.8
29/06:30am 3.9 2.4 3.2 95 0.3 CALM 0 0 0 0 - - 0.8
29/06:00am 3.9 1.7 3.2 95 0.3 NW 4 6 2 3 - - 0.8
29/05:30am 4.1 2.7 3.4 95 0.3 CALM 0 2 0 1 - - 0.8
29/05:00am 4.4 2.6 3.7 95 0.3 NW 2 4 1 2 - - 0.8
29/04:30am 4.3 2.1 3.6 95 0.3 NW 4 6 2 3 - - 0.8
29/04:00am 3.0 1.4 2.3 95 0.3 CALM 0 0 0 0 - - 0.8
29/03:30am 2.8 1.1 2.1 95 0.3 CALM 0 0 0 0 - - 0.8
29/03:00am 2.3 0.2 1.6 95 0.3 WNW 2 2 1 1 - - 0.8
29/02:30am 1.5 -1.1 0.8 95 0.3 WNW 4 6 2 3 - - 0.8
29/02:00am 1.2 -1.8 0.5 95 0.3 NW 6 9 3 5 - - 0.8
29/01:30am 1.4 -0.5 0.7 95 0.3 CALM 0 0 0 0 - - 0.8
29/01:00am 1.6 -0.3 0.7 94 0.3 CALM 0 0 0 0 - - 0.8
29/12:30am 2.2 0.4 1.3 94 0.3 CALM 0 0 0 0 - - 0.8
29/12:00am 2.6 0.5 1.6 93 0.4 S 2 4 1 2 - - 0.8
 
Date/Time
WST
Temp
°C
App
Temp
°C
Dew
Point
Rel
Hum
%
Delta-T
°C
Wind Press
QNH
hPa
Press
MSL
hPa
Rain
since 9 am
mm
Dir
 
Spd
km/h
Gust
km/h
Spd
kts
Gust
kts
28/11:30pm 3.4 1.8 2.4 93 0.4 CALM 0 0 0 0 - - 0.8
28/11:00pm 3.9 2.3 2.7 92 0.5 CALM 0 0 0 0 - - 0.8
28/10:30pm 4.6 3.2 3.3 91 0.5 CALM 0 0 0 0 - - 0.8
28/10:00pm 5.7 4.4 4.2 90 0.6 CALM 0 0 0 0 - - 0.8
28/09:30pm 7.9 6.3 6.5 91 0.7 SE 4 6 2 3 - - 0.8
28/09:00pm 8.2 6.6 6.5 89 0.8 SSE 4 6 2 3 - - 0.8
28/08:30pm 8.7 7.2 6.7 87 0.9 SSE 4 6 2 3 - - 0.8
28/08:00pm 9.8 8.5 7.7 87 1.0 SE 4 4 2 2 - - 0.8
28/07:30pm 10.2 8.6 8.1 87 1.0 SSE 6 9 3 5 - - 0.8
28/07:00pm 10.3 8.6 8.4 88 0.9 SSE 7 11 4 6 - - 0.8
28/06:30pm 9.5 8.9 7.6 88 0.9 CALM 0 2 0 1 - - 0.8
28/06:00pm 9.7 8.0 7.6 87 1.0 SSE 6 6 3 3 - - 0.8
28/05:30pm 10.4 8.3 8.3 87 1.0 S 9 13 5 7 - - 0.8
28/05:00pm 11.3 9.9 8.7 84 1.3 SSE 6 7 3 4 - - 0.8
28/04:30pm 12.1 10.5 8.9 81 1.6 SSE 7 13 4 7 - - 0.8
28/04:00pm 12.7 10.3 10.1 84 1.4 SSE 13 19 7 10 - - 0.8
28/03:30pm 13.1 10.7 10.1 82 1.6 S 13 20 7 11 - - 0.8
28/03:00pm 12.7 9.6 10.4 86 1.2 S 17 20 9 11 - - 0.8
28/02:30pm 12.7 10.0 10.2 85 1.3 S 15 20 8 11 - - 0.8
28/02:00pm 14.1 11.5 9.5 74 2.4 S 13 26 7 14 - - 0.6
28/01:30pm 14.2 12.0 9.4 73 2.5 SSE 11 15 6 8 - - 0.6
28/01:00pm 13.4 11.0 10.0 80 1.8 S 13 19 7 10 - - 0.6
28/12:30pm 13.4 11.3 9.8 79 1.9 SSE 11 15 6 8 - - 0.6
28/12:00pm 13.0 11.9 10.7 86 1.2 SE 7 11 4 6 - - 0.6
28/11:30am 12.4 10.5 10.5 88 1.0 SSE 11 17 6 9 - - 0.6
28/11:00am 11.8 9.6 10.7 93 0.6 S 13 19 7 10 - - 0.6
28/10:30am 11.5 9.2 10.6 94 0.5 SSE 13 19 7 10 - - 0.6
28/10:00am 11.3 10.3 10.2 93 0.6 SSE 6 9 3 5 - - 0.0
28/09:30am 10.5 9.3 9.4 93 0.6 SSW 6 7 3 4 - - 0.0
28/09:00am 10.0 9.0 8.9 93 0.5 SW 4 7 2 4 - - 0.2
28/08:30am 8.6 7.3 7.5 93 0.5 WNW 4 4 2 2 - - 0.2
28/08:00am 7.5 5.5 6.3 92 0.6 W 6 7 3 4 - - 0.0
28/07:30am 6.6 4.4 5.2 91 0.6 WNW 6 7 3 4 - - 0.0
28/07:00am 6.1 3.7 4.4 89 0.7 WNW 6 7 3 4 - - 0.0
28/06:30am 5.8 3.3 3.8 87 0.9 WNW 6 9 3 5 - - 0.0
28/06:00am 4.2 0.9 2.6 89 0.7 NW 9 13 5 7 - - 0.0
28/05:30am 2.4 -1.2 0.6 88 0.7 WNW 9 11 5 6 - - 0.0
28/05:00am 2.2 -1.4 0.4 88 0.7 WNW 9 11 5 6 - - 0.0
28/04:30am 2.7 -0.4 1.1 89 0.6 W 7 9 4 5 - - 0.0
28/04:00am 2.6 -0.6 0.8 88 0.7 WNW 7 9 4 5 - - 0.0
28/03:30am 2.6 -0.6 0.8 88 0.7 WNW 7 9 4 5 - - 0.0
28/03:00am 2.5 -1.1 0.7 88 0.7 WNW 9 9 5 5 - - 0.0
28/02:30am 2.4 -0.6 0.6 88 0.7 W 6 6 3 3 - - 0.0
28/02:00am 2.4 -0.9 0.3 86 0.8 W 7 9 4 5 - - 0.0
28/01:30am 2.2 -1.1 -0.1 85 0.9 WNW 7 9 4 5 - - 0.0
28/01:00am 3.7 0.6 1.6 86 0.8 NW 7 9 4 5 - - 0.0
28/12:30am 3.4 0.3 1.4 87 0.8 W 7 9 4 5 - - 0.0
28/12:00am 1.7 -1.7 -0.5 85 0.8 W 7 9 4 5 - - 0.0
 
Date/Time
WST
Temp
°C
App
Temp
°C
Dew
Point
Rel
Hum
%
Delta-T
°C
Wind Press
QNH
hPa
Press
MSL
hPa
Rain
since 9 am
mm
Dir
 
Spd
km/h
Gust
km/h
Spd
kts
Gust
kts
27/11:30pm 2.2 -1.1 -0.2 84 0.9 WNW 7 9 4 5 - - 0.0
27/11:00pm 2.5 -0.8 -0.1 83 1.0 WNW 7 7 4 4 - - 0.0
27/10:30pm 3.0 -0.2 0.6 84 0.9 WNW 7 9 4 5 - - 0.0
27/10:00pm 3.9 0.8 1.6 85 0.9 W 7 9 4 5 - - 0.0
27/09:30pm 3.5 0.4 0.4 80 1.2 WSW 6 7 3 4 - - 0.0
27/09:00pm 4.5 1.3 0.8 77 1.5 WSW 7 9 4 5 - - 0.0
27/08:30pm 5.5 2.3 0.7 71 1.9 WSW 7 9 4 5 - - 0.0
27/08:00pm 8.0 5.3 2.5 68 2.3 WSW 6 7 3 4 - - 0.0
27/07:30pm 9.6 6.8 2.9 63 2.9 SW 7 9 4 5 - - 0.0
27/07:00pm 10.6 7.8 3.2 60 3.3 WSW 7 13 4 7 - - 0.0
27/06:30pm 12.1 9.6 3.6 56 3.8 WSW 6 7 3 4 - - 0.0
27/06:00pm 12.3 10.2 3.8 56 3.9 W 4 6 2 3 - - 0.0
27/05:30pm 12.9 10.4 3.8 54 4.2 W 6 7 3 4 - - 0.0
27/05:00pm 13.7 11.3 4.3 53 4.4 W 6 13 3 7 - - 0.0
27/04:30pm 14.5 11.8 3.9 49 4.9 W 7 15 4 8 - - 0.0
27/04:00pm 15.6 12.2 4.0 46 5.4 W 11 19 6 10 - - 0.0
27/03:30pm 15.2 11.4 4.0 47 5.2 W 13 20 7 11 - - 0.0
27/03:00pm 15.7 11.6 4.1 46 5.5 WSW 15 30 8 16 - - 0.0
27/02:30pm 15.9 11.8 4.6 47 5.4 W 15 24 8 13 - - 0.0
27/02:00pm 15.8 12.3 5.4 50 5.0 WNW 13 20 7 11 - - 0.0
27/01:30pm 15.3 12.5 5.2 51 4.8 W 9 19 5 10 - - 0.0
27/01:00pm 14.9 11.0 5.4 53 4.6 W 15 22 8 12 - - 0.0
27/12:30pm 15.0 12.0 6.0 55 4.4 W 11 19 6 10 - - 0.0
27/12:00pm 14.4 11.3 5.5 55 4.3 W 11 20 6 11 - - 0.0
27/11:30am 14.6 11.2 5.9 56 4.2 W 13 19 7 10 - - 0.0
27/11:00am 14.3 11.0 6.4 59 3.9 WSW 13 17 7 9 - - 0.0
27/10:30am 13.9 10.4 7.0 63 3.4 W 15 22 8 12 - - 0.0
27/10:00am 12.0 8.6 6.1 67 2.8 W 13 19 7 10 - - 0.0
27/09:30am 11.4 9.4 10.1 92 0.7 NW 11 17 6 9 - - 0.0
27/09:00am 10.3 8.2 9.7 96 0.3 WNW 11 17 6 9 - - 0.2
27/08:30am 9.7 7.8 9.1 96 0.3 NW 9 15 5 8 - - 0.2
27/08:00am 9.1 7.4 8.5 96 0.3 NW 7 13 4 7 - - 0.2
27/07:30am 8.6 6.4 8.0 96 0.3 NW 9 11 5 6 - - 0.2
27/07:00am 8.3 6.4 7.7 96 0.3 NW 7 11 4 6 - - 0.2
27/06:30am 7.9 5.6 7.3 96 0.3 NW 9 13 5 7 - - 0.2

Other Formats:

Comma delimited format used in spreadsheet applications
http://www.bom.gov.au/fwo/IDW60801/IDW60801.95639.axf

JavaScript Object Notation format (JSON) in row-major order
http://www.bom.gov.au/fwo/IDW60801/IDW60801.95639.json